createdAt,value
2023-03-13T00:00:44.347Z,81.2
2023-03-13T00:01:45.891Z,81.2
2023-03-13T00:02:47.309Z,81.3
2023-03-13T00:03:48.741Z,81.3
2023-03-13T00:04:50.282Z,81.3
2023-03-13T00:05:51.491Z,81.4
2023-03-13T00:06:52.916Z,81.4
2023-03-13T00:07:54.024Z,81.5
2023-03-13T00:08:55.157Z,81.5
2023-03-13T00:09:56.570Z,81.6
2023-03-13T00:10:57.983Z,81.6
2023-03-13T00:11:59.120Z,81.7
2023-03-13T00:13:00.537Z,81.7
2023-03-13T00:14:01.951Z,81.7
2023-03-13T00:15:03.092Z,81.8
2023-03-13T00:16:04.514Z,81.8
2023-03-13T00:17:06.087Z,81.8
2023-03-13T00:18:07.586Z,81.8
2023-03-13T00:19:09.023Z,81.8
2023-03-13T00:20:10.427Z,81.8
2023-03-13T00:21:11.870Z,81.8
2023-03-13T00:22:13.295Z,81.8
2023-03-13T00:23:14.697Z,81.8
2023-03-13T00:24:16.114Z,81.8
2023-03-13T00:25:17.534Z,81.8
2023-03-13T00:26:18.955Z,81.8
2023-03-13T00:27:20.364Z,81.7
2023-03-13T00:28:21.542Z,81.7
2023-03-13T00:29:22.959Z,81.8
2023-03-13T00:30:24.374Z,81.7
2023-03-13T00:31:26.352Z,81.8
2023-03-13T00:32:27.714Z,81.8
2023-03-13T00:33:29.102Z,81.7
2023-03-13T00:34:30.519Z,81.7
2023-03-13T00:35:32.091Z,81.7
2023-03-13T00:36:33.616Z,81.7
2023-03-13T00:37:34.999Z,81.7
2023-03-13T00:38:36.414Z,81.7
2023-03-13T00:39:37.828Z,81.7
2023-03-13T00:40:39.245Z,81.7
2023-03-13T00:41:40.662Z,81.7
2023-03-13T00:42:42.081Z,81.6
2023-03-13T00:43:43.227Z,81.6
2023-03-13T00:44:44.620Z,81.6
2023-03-13T00:45:46.211Z,81.6
2023-03-13T00:46:47.467Z,81.5
2023-03-13T00:47:48.874Z,81.5
2023-03-13T00:48:50.286Z,81.5
2023-03-13T00:49:51.848Z,81.5
2023-03-13T00:50:53.262Z,81.5
2023-03-13T00:51:54.719Z,81.4
2023-03-13T00:52:56.106Z,81.4
2023-03-13T00:53:57.521Z,81.4
2023-03-13T00:54:58.941Z,81.4
2023-03-13T00:56:00.354Z,81.3
2023-03-13T00:57:01.765Z,81.3
2023-03-13T00:58:03.190Z,81.3
2023-03-13T00:59:04.630Z,81.3
2023-03-13T01:00:06.015Z,81.3
2023-03-13T01:01:07.442Z,81.2
2023-03-13T01:02:09.379Z,81.2
2023-03-13T01:03:11.557Z,81.1
2023-03-13T01:04:13.030Z,81.1
2023-03-13T01:05:14.233Z,81.1
2023-03-13T01:06:15.671Z,81.1
2023-03-13T01:07:17.106Z,81
2023-03-13T01:08:18.222Z,81
2023-03-13T01:09:19.635Z,81
2023-03-13T01:10:21.050Z,81
2023-03-13T01:11:22.470Z,81
2023-03-13T01:12:23.884Z,81
2023-03-13T01:13:25.300Z,80.9
2023-03-13T01:14:26.712Z,80.9
2023-03-13T01:15:27.851Z,80.9
2023-03-13T01:16:29.265Z,80.8
2023-03-13T01:17:30.683Z,80.8
2023-03-13T01:18:31.819Z,80.8
2023-03-13T01:19:32.952Z,80.8
2023-03-13T01:20:34.380Z,80.8
2023-03-13T01:21:35.798Z,80.8
2023-03-13T01:22:37.236Z,80.8
2023-03-13T01:23:38.641Z,80.8
2023-03-13T01:24:39.824Z,80.8
2023-03-13T01:25:41.240Z,80.7
2023-03-13T01:26:42.426Z,80.7
2023-03-13T01:27:43.834Z,80.7
2023-03-13T01:28:45.251Z,80.6
2023-03-13T01:29:46.666Z,80.6
2023-03-13T01:30:48.248Z,80.6
2023-03-13T01:31:49.687Z,80.6
2023-03-13T01:32:51.294Z,80.5
2023-03-13T01:33:52.674Z,80.5
2023-03-13T01:34:54.090Z,80.5
2023-03-13T01:35:55.665Z,80.5
2023-03-13T01:36:57.056Z,80.5
2023-03-13T01:37:58.504Z,80.4
2023-03-13T01:38:59.904Z,80.5
2023-03-13T01:40:01.304Z,80.5
2023-03-13T01:41:02.720Z,80.5
2023-03-13T01:42:04.137Z,80.5
2023-03-13T01:43:17.517Z,80.5
2023-03-13T01:44:22.141Z,80.5
2023-03-13T01:45:23.541Z,80.6
2023-03-13T01:46:25.329Z,80.6
2023-03-13T01:47:26.856Z,80.6
2023-03-13T01:48:28.272Z,80.7
2023-03-13T01:49:29.685Z,80.7
2023-03-13T01:50:31.101Z,80.7
2023-03-13T01:51:32.521Z,80.7
2023-03-13T01:52:33.650Z,80.7
2023-03-13T01:53:35.111Z,80.6
2023-03-13T01:54:36.487Z,80.6
2023-03-13T01:55:37.896Z,80.5
2023-03-13T01:56:39.317Z,80.5
2023-03-13T01:57:40.735Z,80.5
2023-03-13T01:58:42.145Z,80.4
2023-03-13T01:59:43.577Z,80.4
2023-03-13T02:00:44.988Z,80.4
2023-03-13T02:01:46.530Z,80.4
2023-03-13T02:02:48.125Z,80.3
2023-03-13T02:03:49.604Z,80.3
2023-03-13T02:04:51.019Z,80.3
2023-03-13T02:05:52.436Z,80.3
2023-03-13T02:06:53.849Z,80.3
2023-03-13T02:07:55.276Z,80.2
2023-03-13T02:08:56.703Z,80.2
2023-03-13T02:09:58.095Z,80.2
2023-03-13T02:10:59.503Z,80.2
2023-03-13T02:12:00.923Z,80.2
2023-03-13T02:13:02.366Z,80.2
2023-03-13T02:14:03.773Z,80.2
2023-03-13T02:15:05.163Z,80.2
2023-03-13T02:16:06.778Z,80.2
2023-03-13T02:17:08.172Z,80.2
2023-03-13T02:18:09.582Z,80.2
2023-03-13T02:19:11.000Z,80.2
2023-03-13T02:20:12.415Z,80.2
2023-03-13T02:21:13.831Z,80.3
2023-03-13T02:22:15.010Z,80.3
2023-03-13T02:23:16.430Z,80.3
2023-03-13T02:24:17.866Z,80.3
2023-03-13T02:25:19.251Z,80.3
2023-03-13T02:26:20.668Z,80.3
2023-03-13T02:27:22.082Z,80.3
2023-03-13T02:28:23.530Z,80.2
2023-03-13T02:29:24.920Z,80.2
2023-03-13T02:30:26.337Z,80.2
2023-03-13T02:31:27.761Z,80.2
2023-03-13T02:32:29.409Z,80.2
2023-03-13T02:33:30.827Z,80.1
2023-03-13T02:34:32.242Z,80.1
2023-03-13T02:35:33.847Z,80.1
2023-03-13T02:36:35.237Z,80.2
2023-03-13T02:37:36.373Z,80.2
2023-03-13T02:38:37.793Z,80.2
2023-03-13T02:39:39.226Z,80.2
2023-03-13T02:40:40.616Z,80.2
2023-03-13T02:41:42.036Z,80.2
2023-03-13T02:42:43.181Z,80.2
2023-03-13T02:43:44.580Z,80.3
2023-03-13T02:44:46.000Z,80.3
2023-03-13T02:45:47.409Z,80.3
2023-03-13T02:46:49.192Z,80.3
2023-03-13T02:47:50.538Z,80.3
2023-03-13T02:48:51.955Z,80.3
2023-03-13T02:49:53.373Z,80.3
2023-03-13T02:50:54.789Z,80.4
2023-03-13T02:51:56.203Z,80.4
2023-03-13T02:52:57.502Z,80.4
2023-03-13T02:53:58.915Z,80.4
2023-03-13T02:55:00.471Z,80.5
2023-03-13T02:56:01.900Z,80.6
2023-03-13T02:57:03.284Z,80.6
2023-03-13T02:58:04.705Z,80.6
2023-03-13T02:59:06.113Z,80.6
2023-03-13T03:00:07.530Z,80.6
2023-03-13T03:01:09.124Z,80.6
2023-03-13T03:02:10.509Z,80.5
2023-03-13T03:03:11.926Z,80.5
2023-03-13T03:04:13.512Z,80.5
2023-03-13T03:05:14.965Z,80.4
2023-03-13T03:06:16.352Z,80.4
2023-03-13T03:07:17.531Z,80.4
2023-03-13T03:08:18.663Z,80.4
2023-03-13T03:09:20.100Z,80.3
2023-03-13T03:10:21.523Z,80.3
2023-03-13T03:11:22.909Z,80.3
2023-03-13T03:12:24.046Z,80.3
2023-03-13T03:13:25.459Z,80.3
2023-03-13T03:14:26.881Z,80.3
2023-03-13T03:15:28.291Z,80.3
2023-03-13T03:16:30.144Z,80.2
2023-03-13T03:17:31.600Z,80.3
2023-03-13T03:18:35.231Z,80.3
2023-03-13T03:19:36.648Z,80.3
2023-03-13T03:20:38.061Z,80.3
2023-03-13T03:21:39.488Z,80.3
2023-03-13T03:22:40.959Z,80.3
2023-03-13T03:23:42.603Z,80.3
2023-03-13T03:24:44.026Z,80.3
2023-03-13T03:25:45.232Z,80.3
2023-03-13T03:26:46.617Z,80.4
2023-03-13T03:27:48.032Z,80.4
2023-03-13T03:28:49.458Z,80.4
2023-03-13T03:29:50.863Z,80.4
2023-03-13T03:30:52.533Z,80.4
2023-03-13T03:31:54.287Z,80.4
2023-03-13T03:32:56.057Z,80.5
2023-03-13T03:33:57.507Z,80.5
2023-03-13T03:34:58.928Z,80.5
2023-03-13T03:36:00.443Z,80.5
2023-03-13T03:37:01.938Z,80.6
2023-03-13T03:38:03.359Z,80.6
2023-03-13T03:39:04.943Z,80.7
2023-03-13T03:40:06.345Z,80.7
2023-03-13T03:41:07.779Z,80.8
2023-03-13T03:42:09.172Z,80.8
2023-03-13T03:43:10.353Z,80.8
2023-03-13T03:44:11.773Z,80.9
2023-03-13T03:45:12.922Z,80.9
2023-03-13T03:46:14.584Z,80.9
2023-03-13T03:47:16.252Z,81
2023-03-13T03:48:17.678Z,81
2023-03-13T03:49:19.107Z,81
2023-03-13T03:50:20.282Z,81
2023-03-13T03:51:21.701Z,81.1
2023-03-13T03:52:23.124Z,81.1
2023-03-13T03:53:24.527Z,81.1
2023-03-13T03:54:26.107Z,81.2
2023-03-13T03:55:27.504Z,81.2
2023-03-13T03:56:28.940Z,81.2
2023-03-13T03:57:30.330Z,81.2
2023-03-13T03:58:31.750Z,81.2
2023-03-13T03:59:33.162Z,81.2
2023-03-13T04:00:34.578Z,81.3
2023-03-13T04:01:35.992Z,81.3
2023-03-13T04:02:37.667Z,81.3
2023-03-13T04:03:39.129Z,81.3
2023-03-13T04:04:40.632Z,81.3
2023-03-13T04:05:42.064Z,81.3
2023-03-13T04:06:43.462Z,81.3
2023-03-13T04:07:44.876Z,81.3
2023-03-13T04:08:46.297Z,81.3
2023-03-13T04:09:47.501Z,81.3
2023-03-13T04:10:48.891Z,81.3
2023-03-13T04:11:50.334Z,81.3
2023-03-13T04:12:51.720Z,81.3
2023-03-13T04:13:53.134Z,81.3
2023-03-13T04:14:54.312Z,81.3
2023-03-13T04:15:55.724Z,81.4
2023-03-13T04:16:57.239Z,81.4
2023-03-13T04:17:58.381Z,81.4
2023-03-13T04:18:59.783Z,81.5
2023-03-13T04:20:00.927Z,81.5
2023-03-13T04:21:02.330Z,81.5
2023-03-13T04:22:03.747Z,81.5
2023-03-13T04:23:05.176Z,81.5
2023-03-13T04:24:06.614Z,81.6
2023-03-13T04:25:08.030Z,81.6
2023-03-13T04:26:09.439Z,81.6
2023-03-13T04:27:10.882Z,81.6
2023-03-13T04:28:12.266Z,81.6
2023-03-13T04:29:13.677Z,81.6
2023-03-13T04:30:18.870Z,81.6
2023-03-13T04:31:20.449Z,81.7
2023-03-13T04:32:22.085Z,81.7
2023-03-13T04:33:23.473Z,81.7
2023-03-13T04:34:24.900Z,81.6
2023-03-13T04:35:26.347Z,81.6
2023-03-13T04:36:28.044Z,81.6
2023-03-13T04:37:29.452Z,81.6
2023-03-13T04:38:30.872Z,81.7
2023-03-13T04:39:34.031Z,81.7
2023-03-13T04:40:35.445Z,81.7
2023-03-13T04:41:36.861Z,81.7
2023-03-13T04:42:38.303Z,81.7
2023-03-13T04:43:39.692Z,81.7
2023-03-13T04:44:44.290Z,81.7
2023-03-13T04:45:45.828Z,81.7
2023-03-13T04:46:47.240Z,81.7
2023-03-13T04:47:48.792Z,81.7
2023-03-13T04:48:50.370Z,81.7
2023-03-13T04:49:51.782Z,81.7
2023-03-13T04:50:53.199Z,81.7
2023-03-13T04:51:54.607Z,81.7
2023-03-13T04:52:55.746Z,81.7
2023-03-13T04:53:57.162Z,81.7
2023-03-13T04:54:58.577Z,81.7
2023-03-13T04:56:00.186Z,81.7
2023-03-13T04:57:01.572Z,81.7
2023-03-13T04:58:03.012Z,81.8
2023-03-13T04:59:04.403Z,81.8
2023-03-13T05:00:05.919Z,81.8
2023-03-13T05:01:07.683Z,81.8
2023-03-13T05:02:09.098Z,81.8
2023-03-13T05:03:10.509Z,81.8
2023-03-13T05:04:11.924Z,81.8
2023-03-13T05:05:13.761Z,81.8
2023-03-13T05:06:15.207Z,81.8
2023-03-13T05:07:16.617Z,81.9
2023-03-13T05:08:18.030Z,81.9
2023-03-13T05:09:19.450Z,81.9
2023-03-13T05:10:20.863Z,81.9
2023-03-13T05:11:22.285Z,81.9
2023-03-13T05:12:23.699Z,81.9
2023-03-13T05:13:25.144Z,82
2023-03-13T05:14:26.532Z,82
2023-03-13T05:15:27.945Z,82
2023-03-13T05:16:29.354Z,82
2023-03-13T05:17:30.877Z,82.1
2023-03-13T05:18:32.558Z,82.1
2023-03-13T05:19:33.973Z,82.1
2023-03-13T05:20:35.391Z,82.2
2023-03-13T05:21:36.522Z,82.2
2023-03-13T05:22:37.945Z,82.3
2023-03-13T05:23:39.354Z,82.3
2023-03-13T05:24:42.854Z,82.4
2023-03-13T05:25:44.263Z,82.5
2023-03-13T05:26:45.790Z,82.4
2023-03-13T05:27:47.203Z,82.5
2023-03-13T05:28:48.647Z,82.5
2023-03-13T05:29:50.040Z,82.5
2023-03-13T05:30:51.538Z,82.5
2023-03-13T05:31:53.037Z,82.5
2023-03-13T05:32:54.775Z,82.5
2023-03-13T05:33:56.324Z,82.5
2023-03-13T05:34:57.830Z,82.6
2023-03-13T05:35:59.575Z,82.6
2023-03-13T05:37:01.224Z,82.6
2023-03-13T05:38:02.655Z,82.7
2023-03-13T05:39:04.069Z,82.7
2023-03-13T05:40:05.484Z,82.8
2023-03-13T05:41:07.046Z,82.9
2023-03-13T05:42:09.552Z,83
2023-03-13T05:43:10.967Z,83.1
2023-03-13T05:44:12.427Z,83.2
2023-03-13T05:45:13.795Z,83.3
2023-03-13T05:46:15.355Z,83.4
2023-03-13T05:47:16.744Z,83.5
2023-03-13T05:48:18.343Z,83.6
2023-03-13T05:49:19.759Z,83.7
2023-03-13T05:50:21.177Z,83.8
2023-03-13T05:51:22.589Z,83.9
2023-03-13T05:52:24.001Z,84
2023-03-13T05:53:25.416Z,84.1
2023-03-13T05:54:27.237Z,84.2
2023-03-13T05:55:28.650Z,84.3
2023-03-13T05:56:30.060Z,84.4
2023-03-13T05:57:31.480Z,84.5
2023-03-13T05:58:32.893Z,84.6
2023-03-13T05:59:34.336Z,84.7
2023-03-13T06:00:35.718Z,84.8
2023-03-13T06:01:37.136Z,84.9
2023-03-13T06:02:38.554Z,85
2023-03-13T06:03:40.616Z,85.1
2023-03-13T06:04:42.695Z,85.2
2023-03-13T06:05:44.175Z,85.3
2023-03-13T06:06:45.594Z,85.4
2023-03-13T06:07:47.012Z,85.4
2023-03-13T06:08:48.424Z,85.5
2023-03-13T06:09:49.558Z,85.6
2023-03-13T06:10:51.202Z,85.6
2023-03-13T06:11:52.575Z,85.7
2023-03-13T06:12:54.003Z,85.8
2023-03-13T06:13:55.402Z,85.9
2023-03-13T06:14:56.846Z,85.9
2023-03-13T06:15:58.651Z,86
2023-03-13T06:17:00.097Z,86
2023-03-13T06:18:01.270Z,86.1
2023-03-13T06:19:02.683Z,86.2
2023-03-13T06:20:04.102Z,86.2
2023-03-13T06:21:05.523Z,86.3
2023-03-13T06:22:06.932Z,86.4
2023-03-13T06:23:08.344Z,86.4
2023-03-13T06:24:09.763Z,86.5
2023-03-13T06:25:11.177Z,86.5
2023-03-13T06:26:12.600Z,86.6
2023-03-13T06:27:14.013Z,86.6
2023-03-13T06:28:15.541Z,86.7
2023-03-13T06:29:16.960Z,86.8
2023-03-13T06:30:18.405Z,86.9
2023-03-13T06:31:20.232Z,87
2023-03-13T06:32:22.291Z,87.1
2023-03-13T06:33:24.197Z,87.1
2023-03-13T06:34:25.614Z,87.2
2023-03-13T06:35:27.029Z,87.4
2023-03-13T06:36:28.642Z,87.5
2023-03-13T06:37:30.039Z,87.6
2023-03-13T06:38:31.453Z,87.6
2023-03-13T06:39:32.871Z,87.7
2023-03-13T06:40:34.283Z,87.7
2023-03-13T06:41:35.701Z,87.7
2023-03-13T06:42:37.114Z,87.7
2023-03-13T06:43:38.529Z,87.7
2023-03-13T06:44:39.946Z,87.8
2023-03-13T06:45:41.386Z,87.8
2023-03-13T06:46:42.910Z,87.9
2023-03-13T06:47:44.345Z,87.8
2023-03-13T06:48:45.785Z,87.8
2023-03-13T06:49:47.330Z,87.8
2023-03-13T06:50:48.742Z,87.7
2023-03-13T06:51:50.157Z,87.7
2023-03-13T06:52:51.572Z,87.6
2023-03-13T06:53:53.167Z,87.7
2023-03-13T06:54:54.571Z,87.8
2023-03-13T06:55:56.425Z,87.8
2023-03-13T06:56:57.840Z,87.8
2023-03-13T06:57:59.255Z,87.8
2023-03-13T06:59:01.237Z,87.8
2023-03-13T07:00:02.651Z,87.8
2023-03-13T07:01:04.376Z,87.8
2023-03-13T07:02:05.846Z,87.8
2023-03-13T07:03:07.261Z,87.9
2023-03-13T07:04:08.921Z,87.9
2023-03-13T07:05:10.320Z,88
2023-03-13T07:06:11.730Z,88.1
2023-03-13T07:07:32.508Z,88.1
2023-03-13T07:08:33.924Z,88.1
2023-03-13T07:09:35.338Z,88.2
2023-03-13T07:10:36.749Z,88.2
2023-03-13T07:11:38.167Z,88.1
2023-03-13T07:12:39.581Z,88.1
2023-03-13T07:13:41.000Z,88.1
2023-03-13T07:14:42.414Z,88.1
2023-03-13T07:15:43.824Z,88.1
2023-03-13T07:16:45.533Z,88
2023-03-13T07:17:47.018Z,88.1
2023-03-13T07:18:48.437Z,88
2023-03-13T07:19:49.877Z,87.9
2023-03-13T07:20:51.269Z,87.9
2023-03-13T07:21:52.679Z,87.9
2023-03-13T07:22:54.094Z,87.9
2023-03-13T07:23:55.507Z,87.9
2023-03-13T07:24:57.120Z,87.9
2023-03-13T07:25:58.529Z,87.9
2023-03-13T07:27:08.894Z,88
2023-03-13T07:28:10.280Z,88
2023-03-13T07:29:11.415Z,88
2023-03-13T07:30:12.865Z,88
2023-03-13T07:31:15.196Z,88
2023-03-13T07:32:16.997Z,88.1
2023-03-13T07:33:18.462Z,88.1
2023-03-13T07:34:19.877Z,88.1
2023-03-13T07:35:21.312Z,88.1
2023-03-13T07:36:22.855Z,88.1
2023-03-13T07:37:24.332Z,88.1
2023-03-13T07:38:25.745Z,88.1
2023-03-13T07:39:27.155Z,88
2023-03-13T07:40:28.721Z,88
2023-03-13T07:41:30.139Z,88
2023-03-13T07:42:31.556Z,88
2023-03-13T07:43:32.992Z,88
2023-03-13T07:44:34.396Z,88
2023-03-13T07:45:36.101Z,88
2023-03-13T07:46:37.704Z,88
2023-03-13T07:47:39.154Z,88
2023-03-13T07:48:40.552Z,88
2023-03-13T07:49:41.673Z,88
2023-03-13T07:50:43.152Z,87.9
2023-03-13T07:51:45.545Z,87.9
2023-03-13T07:52:47.110Z,87.9
2023-03-13T07:53:48.507Z,87.8
2023-03-13T07:54:50.117Z,87.7
2023-03-13T07:55:51.529Z,87.6
2023-03-13T07:56:52.953Z,87.5
2023-03-13T07:57:54.618Z,87.5
2023-03-13T07:58:56.053Z,87.4
2023-03-13T07:59:57.447Z,87.3
2023-03-13T08:00:59.028Z,87.2
2023-03-13T08:02:00.656Z,87.1
2023-03-13T08:03:02.322Z,86.9
2023-03-13T08:04:03.745Z,86.8
2023-03-13T08:05:05.853Z,86.8
2023-03-13T08:06:08.375Z,86.7
2023-03-13T08:07:10.391Z,86.6
2023-03-13T08:08:11.849Z,86.5
2023-03-13T08:09:13.876Z,86.4
2023-03-13T08:10:15.590Z,86.3
2023-03-13T08:11:17.003Z,86.2
2023-03-13T08:12:18.499Z,86.1
2023-03-13T08:13:19.924Z,86.1
2023-03-13T08:14:21.345Z,86
2023-03-13T08:15:22.742Z,86
2023-03-13T08:16:24.126Z,86
2023-03-13T08:17:25.511Z,85.9
2023-03-13T08:18:26.971Z,85.8
2023-03-13T08:19:28.344Z,85.7
2023-03-13T08:20:29.762Z,85.6
2023-03-13T08:21:31.362Z,85.6
2023-03-13T08:22:32.775Z,85.5
2023-03-13T08:23:34.197Z,85.4
2023-03-13T08:24:35.609Z,85.2
2023-03-13T08:25:37.022Z,85.1
2023-03-13T08:26:38.566Z,85.1
2023-03-13T08:27:39.978Z,85
2023-03-13T08:28:41.393Z,85
2023-03-13T08:29:42.820Z,85
2023-03-13T08:30:44.463Z,84.9
2023-03-13T08:31:46.036Z,84.9
2023-03-13T08:32:47.650Z,84.9
2023-03-13T08:33:49.078Z,84.8
2023-03-13T08:34:50.458Z,84.8
2023-03-13T08:35:52.090Z,84.7
2023-03-13T08:36:53.605Z,84.6
2023-03-13T08:37:55.058Z,84.5
2023-03-13T08:38:56.489Z,84.5
2023-03-13T08:39:57.892Z,84.5
2023-03-13T08:40:59.304Z,84.4
2023-03-13T08:42:00.722Z,84.4
2023-03-13T08:43:02.140Z,84.4
2023-03-13T08:44:03.551Z,84.4
2023-03-13T08:45:04.978Z,84.4
2023-03-13T08:46:06.683Z,84.4
2023-03-13T08:47:08.177Z,84.4
2023-03-13T08:48:09.589Z,84.4
2023-03-13T08:49:11.086Z,84.3
2023-03-13T08:50:12.554Z,84.3
2023-03-13T08:51:13.974Z,84.2
2023-03-13T08:52:15.458Z,84
2023-03-13T08:53:16.884Z,83.9
2023-03-13T08:54:18.293Z,83.9
2023-03-13T08:55:19.428Z,83.8
2023-03-13T08:56:20.845Z,83.8
2023-03-13T08:57:22.260Z,83.8
2023-03-13T08:58:23.678Z,83.8
2023-03-13T08:59:25.094Z,83.8
2023-03-13T09:00:26.509Z,83.8
2023-03-13T09:01:27.414Z,83.9
2023-03-13T09:02:28.747Z,83.8
2023-03-13T09:03:30.264Z,83.7
2023-03-13T09:04:31.812Z,83.6
2023-03-13T09:05:56.698Z,83.5
2023-03-13T09:06:58.136Z,83.5
2023-03-13T09:07:59.553Z,83.4
2023-03-13T09:09:00.982Z,83.1
2023-03-13T09:10:02.396Z,82.8
2023-03-13T09:11:03.812Z,82.6
2023-03-13T09:12:05.004Z,82.2
2023-03-13T09:13:06.414Z,82
2023-03-13T09:14:07.836Z,81.9
2023-03-13T09:15:09.242Z,81.9
2023-03-13T09:16:11.093Z,81.8
2023-03-13T09:17:12.547Z,81.7
2023-03-13T09:18:14.318Z,81.7
2023-03-13T09:19:15.732Z,81.8
2023-03-13T09:20:17.177Z,81.7
2023-03-13T09:21:18.566Z,81.6
2023-03-13T09:22:19.983Z,81.5
2023-03-13T09:23:21.394Z,81.1
2023-03-13T09:24:22.809Z,80.8
2023-03-13T09:25:24.231Z,80.5
2023-03-13T09:26:25.641Z,80.4
2023-03-13T09:27:27.058Z,79.9
2023-03-13T09:28:28.475Z,79.7
2023-03-13T09:29:29.890Z,79.5
2023-03-13T09:30:31.515Z,79.3
2023-03-13T09:31:33.379Z,79.4
2023-03-13T09:32:35.082Z,79.4
2023-03-13T09:33:36.513Z,79.4
2023-03-13T09:34:37.947Z,79.5
2023-03-13T09:35:39.421Z,79.5
2023-03-13T09:36:40.563Z,79.3
2023-03-13T09:37:41.974Z,79
2023-03-13T09:38:43.401Z,78.9
2023-03-13T09:39:44.808Z,78.8
2023-03-13T09:41:06.838Z,78.8
2023-03-13T09:42:08.837Z,78.9
2023-03-13T09:43:10.253Z,79
2023-03-13T09:44:11.670Z,78.9
2023-03-13T09:45:13.088Z,78.6
2023-03-13T09:46:14.628Z,78.4
2023-03-13T09:47:15.746Z,78.3
2023-03-13T09:48:17.163Z,78.3
2023-03-13T09:49:19.440Z,78.2
2023-03-13T09:50:20.853Z,78.1
2023-03-13T09:51:22.341Z,77.8
2023-03-13T09:52:23.718Z,77.5
2023-03-13T09:53:25.133Z,76.4
2023-03-13T09:54:26.554Z,76.5
2023-03-13T09:55:27.964Z,76.3
2023-03-13T09:56:29.384Z,75.9
2023-03-13T09:57:30.796Z,75.8
2023-03-13T09:58:32.229Z,75.8
2023-03-13T09:59:33.625Z,75.5
2023-03-13T10:00:35.045Z,75.4
2023-03-13T10:01:37.020Z,74.9
2023-03-13T10:02:38.422Z,74.7
2023-03-13T10:03:39.832Z,74.6
2023-03-13T10:04:43.085Z,74.6
2023-03-13T10:05:44.581Z,74.3
2023-03-13T10:06:46.090Z,74.4
2023-03-13T10:07:47.488Z,74.4
2023-03-13T10:08:48.953Z,74.5
2023-03-13T10:09:50.333Z,74.4
2023-03-13T10:10:51.751Z,74
2023-03-13T10:11:53.171Z,73.4
2023-03-13T10:12:54.591Z,73.3
2023-03-13T10:13:56.147Z,73.4
2023-03-13T10:14:57.559Z,73.1
2023-03-13T10:15:59.259Z,72.6
2023-03-13T10:17:00.485Z,72
2023-03-13T10:18:01.897Z,72
2023-03-13T10:19:03.311Z,72
2023-03-13T10:20:04.731Z,71.9
2023-03-13T10:21:06.144Z,71.8
2023-03-13T10:22:07.588Z,71.6
2023-03-13T10:23:08.977Z,71.2
2023-03-13T10:24:10.391Z,71
2023-03-13T10:25:11.805Z,70.7
2023-03-13T10:26:13.223Z,70.4
2023-03-13T10:27:14.640Z,70
2023-03-13T10:28:16.063Z,69.9
2023-03-13T10:29:17.489Z,69.6
2023-03-13T10:30:18.906Z,69.6
2023-03-13T10:31:20.432Z,69.8
2023-03-13T10:32:22.270Z,69.9
2023-03-13T10:33:23.671Z,69.9
2023-03-13T10:34:25.086Z,69.8
2023-03-13T10:35:26.497Z,69.7
2023-03-13T10:36:27.917Z,69.7
2023-03-13T10:37:29.358Z,69.7
2023-03-13T10:38:30.745Z,69.9
2023-03-13T10:39:32.162Z,70
2023-03-13T10:40:34.186Z,70
2023-03-13T10:41:35.612Z,69.9
2023-03-13T10:42:37.027Z,69.2
2023-03-13T10:43:38.489Z,69.1
2023-03-13T10:44:39.874Z,69
2023-03-13T10:45:41.293Z,68.9
2023-03-13T10:46:42.929Z,69.1
2023-03-13T10:47:44.413Z,68.5
2023-03-13T10:48:45.823Z,68.4
2023-03-13T10:49:47.242Z,68.5
2023-03-13T10:50:48.664Z,68.7
2023-03-13T10:51:50.087Z,68.3
2023-03-13T10:52:51.524Z,68.1
2023-03-13T10:53:52.921Z,68.2
2023-03-13T10:54:54.328Z,68.2
2023-03-13T10:55:55.744Z,68.2
2023-03-13T10:56:57.158Z,68.1
2023-03-13T10:57:58.336Z,68
2023-03-13T10:58:59.752Z,68
2023-03-13T11:00:04.710Z,67.9
2023-03-13T11:01:06.128Z,68
2023-03-13T11:02:07.577Z,68
2023-03-13T11:03:09.483Z,68.1
2023-03-13T11:04:10.939Z,67.6
2023-03-13T11:05:14.541Z,67
2023-03-13T11:06:15.965Z,67
2023-03-13T11:07:17.376Z,67.1
2023-03-13T11:08:18.970Z,67.3
2023-03-13T11:09:20.402Z,67.3
2023-03-13T11:10:21.832Z,67.5
2023-03-13T11:11:23.233Z,67.4
2023-03-13T11:12:24.646Z,67.5
2023-03-13T11:13:38.718Z,67.3
2023-03-13T11:14:40.360Z,67.4
2023-03-13T11:15:41.753Z,67.2
2023-03-13T11:16:43.506Z,67.4
2023-03-13T11:17:44.935Z,67.7
2023-03-13T11:18:46.602Z,68
2023-03-13T11:19:48.011Z,68
2023-03-13T11:20:49.418Z,67.8
2023-03-13T11:21:50.815Z,67.8
2023-03-13T11:22:52.297Z,68
2023-03-13T11:23:53.746Z,68
2023-03-13T11:24:55.132Z,68.2
2023-03-13T11:25:56.545Z,68.3
2023-03-13T11:27:05.976Z,68.3
2023-03-13T11:28:07.386Z,68.4
2023-03-13T11:29:08.802Z,68.4
2023-03-13T11:30:10.219Z,68.5
2023-03-13T11:31:11.793Z,68.4
2023-03-13T11:32:13.184Z,68.4
2023-03-13T11:33:14.363Z,68.3
2023-03-13T11:34:15.782Z,68.1
2023-03-13T11:35:17.197Z,68.1
2023-03-13T11:36:18.476Z,68.2
2023-03-13T11:37:19.947Z,68.2
2023-03-13T11:38:21.376Z,68.4
2023-03-13T11:39:22.814Z,68.2
2023-03-13T11:40:24.207Z,68.3
2023-03-13T11:41:25.628Z,68.4
2023-03-13T11:42:27.034Z,68.3
2023-03-13T11:43:28.456Z,68.2
2023-03-13T11:44:29.605Z,67.9
2023-03-13T11:45:31.263Z,67.8
2023-03-13T11:46:33.298Z,67.9
2023-03-13T11:47:34.808Z,67.9
2023-03-13T11:48:36.218Z,67.9
2023-03-13T11:49:41.232Z,68
2023-03-13T11:50:42.640Z,67.8
2023-03-13T11:51:44.274Z,67.5
2023-03-13T11:52:45.784Z,67
2023-03-13T11:53:47.183Z,66.9
2023-03-13T11:54:48.620Z,66.6
2023-03-13T11:55:50.010Z,66.7
2023-03-13T11:56:51.423Z,66.6
2023-03-13T11:57:52.842Z,66.6
2023-03-13T11:58:54.255Z,66.6
2023-03-13T11:59:55.686Z,66.4
2023-03-13T12:00:57.248Z,66.2
2023-03-13T12:01:58.805Z,65.8
2023-03-13T12:03:00.208Z,65.6
2023-03-13T12:04:01.617Z,65.3
2023-03-13T12:05:03.400Z,65.3
2023-03-13T12:06:05.692Z,65.5
2023-03-13T12:07:07.194Z,65.7
2023-03-13T12:08:08.373Z,65.4
2023-03-13T12:09:10.005Z,65.5
2023-03-13T12:10:11.214Z,65.3
2023-03-13T12:11:12.396Z,65.3
2023-03-13T12:12:13.811Z,65.1
2023-03-13T12:13:15.230Z,65
2023-03-13T12:14:16.663Z,65.1
2023-03-13T12:15:20.055Z,65.2
2023-03-13T12:16:21.609Z,65.2
2023-03-13T12:17:23.211Z,65.2
2023-03-13T12:18:24.672Z,65.2
2023-03-13T12:19:26.097Z,65.2
2023-03-13T12:20:27.532Z,65.1
2023-03-13T12:21:29.181Z,65
2023-03-13T12:22:30.582Z,64.8
2023-03-13T12:23:32.671Z,64.4
2023-03-13T12:24:34.138Z,64.5
2023-03-13T12:25:39.529Z,64.6
2023-03-13T12:26:41.069Z,64.6
2023-03-13T12:27:42.486Z,64.4
2023-03-13T12:28:43.920Z,64.2
2023-03-13T12:29:45.379Z,64.2
2023-03-13T12:30:47.108Z,64.1
2023-03-13T12:31:48.353Z,64.1
2023-03-13T12:32:49.729Z,64.1
2023-03-13T12:33:51.207Z,63.8
2023-03-13T12:34:52.624Z,64
2023-03-13T12:35:54.244Z,63.8
2023-03-13T12:36:55.624Z,63.5
2023-03-13T12:37:57.092Z,63.5
2023-03-13T12:38:58.783Z,63.5
2023-03-13T12:40:00.203Z,63.4
2023-03-13T12:41:01.643Z,63.5
2023-03-13T12:42:02.828Z,63.8
2023-03-13T12:43:03.961Z,63.8
2023-03-13T12:44:10.179Z,63.8
2023-03-13T12:45:11.675Z,63.9
2023-03-13T12:46:13.724Z,63.9
2023-03-13T12:47:15.195Z,63.7
2023-03-13T12:48:16.586Z,63.3
2023-03-13T12:49:17.851Z,63.3
2023-03-13T12:50:19.258Z,63.4
2023-03-13T12:51:20.680Z,63.5
2023-03-13T12:52:22.098Z,63.3
2023-03-13T12:53:23.510Z,63.3
2023-03-13T12:54:25.208Z,63.6
2023-03-13T12:55:26.624Z,63.7
2023-03-13T12:56:28.088Z,63.9
2023-03-13T12:57:29.636Z,63.7
2023-03-13T12:58:31.123Z,63.8
2023-03-13T12:59:32.534Z,63.7
2023-03-13T13:00:33.949Z,63.7
2023-03-13T13:01:35.685Z,63.8
2023-03-13T13:02:37.183Z,63.8
2023-03-13T13:03:38.595Z,63.8
2023-03-13T13:04:39.843Z,63.9
2023-03-13T13:05:41.748Z,64.2
2023-03-13T13:06:43.162Z,64.3
2023-03-13T13:07:44.591Z,64.2
2023-03-13T13:08:46.003Z,64.2
2023-03-13T13:09:47.409Z,64.2
2023-03-13T13:10:48.545Z,64.3
2023-03-13T13:11:49.821Z,64.5
2023-03-13T13:12:51.202Z,64.4
2023-03-13T13:13:52.611Z,64.5
2023-03-13T13:14:54.033Z,64.3
2023-03-13T13:15:55.535Z,63.9
2023-03-13T13:16:57.038Z,64
2023-03-13T13:17:58.453Z,64
2023-03-13T13:18:59.867Z,64
2023-03-13T13:20:01.283Z,64.1
2023-03-13T13:21:02.422Z,64.4
2023-03-13T13:22:03.638Z,64.2
2023-03-13T13:23:05.036Z,63.5
2023-03-13T13:24:06.451Z,63.5
2023-03-13T13:25:07.865Z,63.7
2023-03-13T13:26:09.148Z,64.1
2023-03-13T13:27:10.587Z,64.3
2023-03-13T13:28:11.487Z,64.5
2023-03-13T13:29:12.916Z,64.7
2023-03-13T13:30:14.332Z,64.8
2023-03-13T13:31:16.154Z,64.6
2023-03-13T13:32:17.962Z,64.4
2023-03-13T13:33:19.365Z,64.1
2023-03-13T13:34:20.782Z,64.3
2023-03-13T13:35:22.197Z,64.2
2023-03-13T13:36:23.617Z,64
2023-03-13T13:37:25.033Z,64.1
2023-03-13T13:38:26.452Z,64.4
2023-03-13T13:39:27.872Z,64.5
2023-03-13T13:40:29.426Z,64.5
2023-03-13T13:41:30.926Z,64.4
2023-03-13T13:42:32.383Z,63.8
2023-03-13T13:43:33.793Z,64
2023-03-13T13:44:35.190Z,64.3
2023-03-13T13:45:36.597Z,64.5